createdAt,value
2023-05-08T00:01:21.364Z,31.65
2023-05-08T00:03:48.294Z,29.25
2023-05-08T00:06:15.336Z,27.50
2023-05-08T00:08:42.068Z,30.80
2023-05-08T00:11:08.863Z,29.02
2023-05-08T00:13:35.773Z,29.98
2023-05-08T00:16:02.581Z,30.98
2023-05-08T00:18:29.346Z,31.38
2023-05-08T00:20:59.108Z,31.35
2023-05-08T00:23:25.822Z,34.20
2023-05-08T00:25:52.610Z,29.77
2023-05-08T00:28:19.331Z,29.13
2023-05-08T00:30:46.201Z,30.13
2023-05-08T00:33:13.090Z,29.25
2023-05-08T00:35:42.407Z,31.00
2023-05-08T00:38:10.386Z,31.02
2023-05-08T00:40:37.315Z,28.73
2023-05-08T00:43:04.021Z,27.73
2023-05-08T00:45:38.113Z,28.83
2023-05-08T00:48:05.367Z,27.25
2023-05-08T00:50:32.789Z,27.40
2023-05-08T00:53:01.329Z,26.67
2023-05-08T00:55:28.318Z,27.38
2023-05-08T00:57:55.026Z,29.27
2023-05-08T01:00:23.010Z,27.42
2023-05-08T01:02:50.144Z,29.35
2023-05-08T01:05:17.033Z,29.65
2023-05-08T01:07:44.176Z,28.27
2023-05-08T01:10:11.410Z,31.35
2023-05-08T01:13:00.144Z,29.00
2023-05-08T01:15:36.214Z,30.02
2023-05-08T01:18:28.410Z,29.38
2023-05-08T01:21:23.699Z,31.23
2023-05-08T01:23:57.470Z,30.13
2023-05-08T01:27:14.881Z,30.90
2023-05-08T01:30:07.242Z,29.45
2023-05-08T01:32:43.140Z,27.40
2023-05-08T01:35:27.588Z,29.80
2023-05-08T01:38:09.806Z,30.17
2023-05-08T01:41:15.369Z,29.60
2023-05-08T01:43:53.879Z,31.70
2023-05-08T01:46:25.792Z,29.52
2023-05-08T01:49:08.604Z,28.30
2023-05-08T01:51:53.807Z,35.60
2023-05-08T01:54:23.964Z,32.85
2023-05-08T01:56:53.776Z,26.30
2023-05-08T01:59:22.662Z,28.63
2023-05-08T02:03:11.178Z,36.42
2023-05-08T02:05:40.028Z,30.27
2023-05-08T02:08:09.732Z,28.73
2023-05-08T02:10:37.417Z,27.00
2023-05-08T02:13:04.700Z,26.13
2023-05-08T02:15:35.931Z,25.65
2023-05-08T02:18:04.997Z,28.80
2023-05-08T02:20:32.327Z,27.40
2023-05-08T02:22:59.480Z,28.60
2023-05-08T02:25:27.041Z,27.70
2023-05-08T02:27:54.835Z,26.95
2023-05-08T02:30:23.861Z,26.70
2023-05-08T02:32:51.437Z,24.40
2023-05-08T02:35:20.958Z,28.33
2023-05-08T02:37:51.851Z,25.15
2023-05-08T02:40:18.973Z,25.95
2023-05-08T02:42:46.877Z,26.30
2023-05-08T02:45:14.332Z,25.30
2023-05-08T02:48:15.414Z,25.83
2023-05-08T02:50:56.065Z,26.20
2023-05-08T02:53:34.834Z,26.77
2023-05-08T02:56:39.360Z,26.50
2023-05-08T02:59:22.452Z,28.17
2023-05-08T03:02:19.991Z,25.88
2023-05-08T03:05:01.372Z,24.83
2023-05-08T03:07:29.181Z,25.77
2023-05-08T03:10:03.200Z,25.92
2023-05-08T03:15:06.991Z,24.35
2023-05-08T03:17:37.119Z,26.52
2023-05-08T03:20:08.287Z,23.13
2023-05-08T03:22:37.009Z,23.77
2023-05-08T03:25:05.761Z,28.70
2023-05-08T03:27:34.705Z,24.70
2023-05-08T03:30:02.719Z,26.63
2023-05-08T03:32:33.135Z,27.10
2023-05-08T03:35:03.644Z,25.08
2023-05-08T03:37:30.716Z,25.48
2023-05-08T03:39:57.634Z,26.38
2023-05-08T03:42:25.633Z,28.73
2023-05-08T03:44:54.246Z,24.48
2023-05-08T03:47:22.563Z,24.85
2023-05-08T03:49:52.963Z,23.05
2023-05-08T03:52:19.820Z,27.10
2023-05-08T03:54:47.124Z,26.95
2023-05-08T03:57:14.370Z,27.35
2023-05-08T04:00:14.788Z,28.45
2023-05-08T04:02:56.766Z,29.45
2023-05-08T04:05:37.859Z,26.67
2023-05-08T04:08:16.411Z,27.23
2023-05-08T04:10:55.027Z,28.60
2023-05-08T04:13:29.040Z,28.77
2023-05-08T04:16:06.796Z,28.02
2023-05-08T04:18:38.637Z,27.73
2023-05-08T04:21:11.440Z,29.75
2023-05-08T04:23:40.696Z,29.80
2023-05-08T04:26:08.144Z,28.55
2023-05-08T04:28:35.066Z,29.80
2023-05-08T04:31:03.556Z,29.67
2023-05-08T04:33:30.547Z,27.48
2023-05-08T04:36:01.151Z,26.65
2023-05-08T04:38:28.024Z,27.80
2023-05-08T04:40:55.146Z,28.85
2023-05-08T04:43:23.224Z,26.27
2023-05-08T04:45:50.195Z,29.35
2023-05-08T04:48:17.024Z,26.88
2023-05-08T04:50:43.761Z,27.45
2023-05-08T04:53:10.902Z,26.58
2023-05-08T04:55:37.646Z,28.00
2023-05-08T04:58:04.456Z,27.10
2023-05-08T05:00:31.208Z,29.95
2023-05-08T05:02:58.572Z,27.73
2023-05-08T05:05:25.494Z,28.00
2023-05-08T05:07:52.414Z,26.02
2023-05-08T05:10:20.534Z,29.40
2023-05-08T05:12:47.502Z,30.23
2023-05-08T05:15:14.816Z,28.92
2023-05-08T05:17:41.675Z,25.77
2023-05-08T05:20:09.277Z,25.88
2023-05-08T05:22:36.807Z,26.35
2023-05-08T05:25:04.075Z,27.98
2023-05-08T05:27:31.000Z,29.58
2023-05-08T05:29:58.281Z,28.77
2023-05-08T05:32:26.144Z,33.55
2023-05-08T05:34:53.936Z,27.23
2023-05-08T05:37:21.685Z,29.50
2023-05-08T05:39:48.516Z,27.30
2023-05-08T05:42:16.075Z,27.98
2023-05-08T05:44:43.244Z,27.08
2023-05-08T05:47:10.678Z,27.42
2023-05-08T05:49:39.717Z,29.52
2023-05-08T05:52:06.688Z,27.48
2023-05-08T05:54:33.705Z,28.23
2023-05-08T05:57:00.441Z,28.70
2023-05-08T05:59:27.243Z,27.00
2023-05-08T06:01:54.188Z,29.48
2023-05-08T06:04:21.083Z,26.13
2023-05-08T06:06:48.341Z,29.30
2023-05-08T06:09:17.571Z,25.70
2023-05-08T06:11:44.293Z,30.88
2023-05-08T06:14:11.161Z,29.95
2023-05-08T06:16:38.720Z,26.25
2023-05-08T06:19:05.786Z,27.42
2023-05-08T06:21:32.910Z,29.38
2023-05-08T06:23:59.848Z,31.50
2023-05-08T06:26:26.956Z,29.27
2023-05-08T06:28:53.701Z,29.52
2023-05-08T06:31:20.862Z,27.52
2023-05-08T06:33:47.667Z,29.42
2023-05-08T06:36:14.457Z,26.95
2023-05-08T06:38:41.232Z,28.77
2023-05-08T06:41:07.979Z,31.30
2023-05-08T06:43:34.718Z,30.73
2023-05-08T06:46:01.517Z,29.52
2023-05-08T06:48:29.397Z,28.95
2023-05-08T06:50:56.561Z,28.27
2023-05-08T06:53:23.438Z,28.23
2023-05-08T06:55:50.277Z,28.98
2023-05-08T06:58:17.020Z,26.38
2023-05-08T07:00:43.840Z,31.35
2023-05-08T07:03:10.880Z,27.88
2023-05-08T07:05:37.670Z,28.15
2023-05-08T07:08:04.708Z,29.13
2023-05-08T07:10:31.521Z,27.33
2023-05-08T07:12:58.397Z,26.40
2023-05-08T07:15:26.417Z,25.65
2023-05-08T07:17:54.188Z,25.58
2023-05-08T07:20:22.756Z,26.42
2023-05-08T07:22:49.895Z,26.70
2023-05-08T07:25:16.932Z,26.40
2023-05-08T07:27:43.699Z,28.63
2023-05-08T07:30:11.149Z,25.45
2023-05-08T07:32:39.410Z,25.05
2023-05-08T07:35:11.044Z,24.92
2023-05-08T07:37:39.494Z,25.15
2023-05-08T07:40:10.077Z,25.65
2023-05-08T07:42:44.396Z,25.10
2023-05-08T07:45:13.323Z,22.92
2023-05-08T07:47:58.626Z,22.08
2023-05-08T07:50:26.537Z,22.98
2023-05-08T07:52:53.352Z,22.55
2023-05-08T07:55:21.618Z,22.50
2023-05-08T07:57:48.453Z,25.38
2023-05-08T08:00:16.774Z,25.92
2023-05-08T08:02:44.863Z,25.27
2023-05-08T08:05:12.601Z,26.48
2023-05-08T08:07:39.798Z,22.98
2023-05-08T08:10:07.920Z,26.23
2023-05-08T08:12:34.920Z,25.67
2023-05-08T08:15:01.837Z,24.65
2023-05-08T08:17:29.051Z,28.67
2023-05-08T08:19:57.102Z,27.63
2023-05-08T08:22:25.562Z,25.67
2023-05-08T08:24:55.063Z,28.27
2023-05-08T08:27:22.616Z,26.13
2023-05-08T08:29:51.161Z,24.40
2023-05-08T08:32:19.861Z,25.33
2023-05-08T08:34:46.738Z,28.95
2023-05-08T08:37:13.613Z,25.92
2023-05-08T08:39:40.525Z,28.15
2023-05-08T08:42:07.318Z,29.75
2023-05-08T08:44:34.340Z,28.02
2023-05-08T08:47:01.831Z,28.08
2023-05-08T08:49:34.819Z,30.48
2023-05-08T08:52:33.809Z,29.17
2023-05-08T08:55:03.297Z,26.30
2023-05-08T08:57:33.895Z,31.40
2023-05-08T09:00:05.194Z,29.25
2023-05-08T09:02:32.355Z,30.77
2023-05-08T09:04:59.780Z,30.83
2023-05-08T09:07:27.165Z,32.25
2023-05-08T09:09:54.496Z,27.23
2023-05-08T09:12:21.369Z,27.50
2023-05-08T09:14:48.444Z,24.05
2023-05-08T09:17:15.268Z,28.95
2023-05-08T09:19:42.502Z,27.20
2023-05-08T09:22:10.682Z,26.63
2023-05-08T09:25:07.299Z,28.20
2023-05-08T09:27:36.274Z,28.00
2023-05-08T09:30:10.477Z,25.65
2023-05-08T09:32:41.125Z,26.65
2023-05-08T09:35:10.070Z,25.65
2023-05-08T09:37:43.179Z,26.90
2023-05-08T09:40:28.178Z,26.55
2023-05-08T09:42:55.155Z,25.27
2023-05-08T09:45:31.743Z,25.05
2023-05-08T09:47:59.497Z,24.48
2023-05-08T09:50:27.658Z,24.92
2023-05-08T09:52:54.658Z,23.33
2023-05-08T09:55:21.567Z,26.13
2023-05-08T09:57:59.856Z,27.17
2023-05-08T10:00:28.561Z,28.70
2023-05-08T10:03:02.264Z,26.73
2023-05-08T10:05:34.625Z,27.17
2023-05-08T10:08:29.820Z,25.40
2023-05-08T10:11:15.296Z,27.42
2023-05-08T10:13:43.300Z,27.58
2023-05-08T10:16:18.858Z,26.33
2023-05-08T10:18:50.247Z,26.52
2023-05-08T10:21:18.149Z,26.67
2023-05-08T10:23:47.519Z,26.25
2023-05-08T10:26:19.598Z,26.63
2023-05-08T10:28:50.208Z,30.23
2023-05-08T10:31:18.720Z,27.08
2023-05-08T10:33:48.674Z,29.40
2023-05-08T10:36:16.256Z,25.10
2023-05-08T10:38:43.682Z,25.85
2023-05-08T10:41:13.840Z,23.83
2023-05-08T10:43:43.439Z,26.77
2023-05-08T10:46:39.362Z,26.55
2023-05-08T10:49:43.051Z,24.00
2023-05-08T10:52:17.849Z,24.52
2023-05-08T10:54:47.554Z,26.80
2023-05-08T10:57:15.558Z,24.88
2023-05-08T10:59:48.444Z,24.42
2023-05-08T11:02:16.517Z,24.88
2023-05-08T11:04:44.042Z,25.73
2023-05-08T11:07:11.580Z,22.80
2023-05-08T11:09:41.352Z,22.17
2023-05-08T11:12:20.358Z,25.67
2023-05-08T11:15:09.435Z,25.90
2023-05-08T11:17:36.262Z,24.05
2023-05-08T11:20:05.948Z,23.80
2023-05-08T11:22:38.193Z,25.58
2023-05-08T11:25:10.312Z,23.20
2023-05-08T11:28:06.332Z,23.77
2023-05-08T11:30:33.025Z,23.52
2023-05-08T11:33:05.759Z,23.42
2023-05-08T11:35:48.965Z,21.77
2023-05-08T11:38:26.282Z,22.38
2023-05-08T11:40:59.022Z,21.92
2023-05-08T11:43:38.355Z,24.00
2023-05-08T11:46:17.954Z,21.70
2023-05-08T11:48:44.998Z,25.15
2023-05-08T11:51:13.661Z,23.15
2023-05-08T11:53:40.698Z,24.70
2023-05-08T11:56:08.096Z,23.67
2023-05-08T11:58:36.562Z,22.60
2023-05-08T12:01:03.638Z,22.38
2023-05-08T12:03:30.737Z,21.63
2023-05-08T12:05:59.617Z,23.00
2023-05-08T12:08:26.801Z,24.73
2023-05-08T12:10:56.697Z,23.60
2023-05-08T12:13:29.420Z,23.63
2023-05-08T12:15:58.783Z,20.63
2023-05-08T12:18:27.793Z,21.42
2023-05-08T12:21:01.718Z,15.57
2023-05-08T12:23:33.253Z,17.15
2023-05-08T12:26:01.412Z,19.27
2023-05-08T12:28:28.833Z,20.95
2023-05-08T12:30:56.212Z,21.48
2023-05-08T12:33:23.648Z,21.80
2023-05-08T12:35:50.610Z,21.45
2023-05-08T12:38:17.403Z,23.77
2023-05-08T12:40:47.781Z,15.18
2023-05-08T12:43:14.858Z,22.20
2023-05-08T12:45:42.932Z,21.23
2023-05-08T12:48:13.614Z,22.20
2023-05-08T12:50:43.229Z,21.25
2023-05-08T12:53:16.163Z,20.55
2023-05-08T12:56:02.717Z,23.02
2023-05-08T12:58:34.673Z,21.15
2023-05-08T13:01:12.906Z,23.15
2023-05-08T13:03:40.720Z,19.98
2023-05-08T13:06:08.252Z,20.77
2023-05-08T13:08:34.979Z,21.02
2023-05-08T13:11:06.858Z,20.88
2023-05-08T13:13:36.264Z,22.92
2023-05-08T13:16:06.618Z,20.88
2023-05-08T13:18:36.612Z,20.45
2023-05-08T13:21:04.039Z,19.55
2023-05-08T13:23:30.947Z,24.23
2023-05-08T13:25:57.697Z,25.63
2023-05-08T13:28:24.488Z,22.02
2023-05-08T13:30:51.178Z,21.83
2023-05-08T13:33:17.977Z,22.00
2023-05-08T13:35:44.719Z,20.45
2023-05-08T13:38:11.510Z,21.38
2023-05-08T13:40:38.270Z,23.65
2023-05-08T13:43:05.011Z,23.17
2023-05-08T13:45:33.035Z,24.15
2023-05-08T13:48:00.203Z,22.48
2023-05-08T13:50:27.079Z,24.10
2023-05-08T13:52:55.207Z,22.33
2023-05-08T13:55:23.342Z,24.17
2023-05-08T13:57:51.039Z,23.35
2023-05-08T14:00:18.390Z,23.40
2023-05-08T14:02:47.887Z,23.38
2023-05-08T14:05:16.602Z,22.35
2023-05-08T14:07:43.889Z,23.42
2023-05-08T14:10:10.999Z,20.98
2023-05-08T14:12:37.786Z,23.25
2023-05-08T14:15:05.776Z,20.63
2023-05-08T14:17:35.238Z,25.33
2023-05-08T14:20:01.968Z,21.00
2023-05-08T14:22:28.783Z,21.00
2023-05-08T14:24:55.859Z,19.42
2023-05-08T14:27:22.740Z,22.02
2023-05-08T14:29:49.588Z,20.23
2023-05-08T14:32:16.452Z,19.95
2023-05-08T14:34:43.260Z,20.75
2023-05-08T14:37:11.242Z,24.55
2023-05-08T14:39:38.159Z,21.40
2023-05-08T14:42:22.033Z,21.55
2023-05-08T14:44:49.991Z,21.75
2023-05-08T14:47:16.888Z,21.38
2023-05-08T14:49:44.308Z,20.30
2023-05-08T14:52:11.045Z,18.33
2023-05-08T14:54:38.105Z,21.63
2023-05-08T14:57:04.981Z,20.35
2023-05-08T14:59:31.720Z,23.58
2023-05-08T15:01:58.463Z,23.42
2023-05-08T15:04:25.279Z,27.10
2023-05-08T15:06:52.151Z,24.80
2023-05-08T15:09:18.913Z,24.05
2023-05-08T15:11:45.661Z,23.38
2023-05-08T15:14:12.426Z,22.17
2023-05-08T15:16:39.266Z,19.92
2023-05-08T15:19:05.999Z,23.48
2023-05-08T15:21:32.775Z,22.80
2023-05-08T15:23:59.583Z,25.85
2023-05-08T15:26:26.356Z,24.05
2023-05-08T15:28:53.142Z,25.23
2023-05-08T15:31:19.911Z,23.40
2023-05-08T15:33:47.791Z,21.08
2023-05-08T15:36:14.938Z,20.60
2023-05-08T15:38:42.098Z,20.73
2023-05-08T15:41:14.612Z,20.50
2023-05-08T15:46:09.241Z,24.90
2023-05-08T15:48:36.112Z,26.52
2023-05-08T15:51:02.900Z,24.90
2023-05-08T15:53:29.583Z,23.30
2023-05-08T15:55:57.096Z,25.35
2023-05-08T15:58:24.285Z,23.55
2023-05-08T16:01:16.081Z,26.20
2023-05-08T16:03:43.085Z,24.85
2023-05-08T16:06:10.154Z,23.10
2023-05-08T16:08:36.955Z,20.90
2023-05-08T16:11:03.938Z,23.60
2023-05-08T16:13:30.794Z,24.00
2023-05-08T16:16:04.425Z,25.45
2023-05-08T16:18:31.328Z,20.73
2023-05-08T16:20:58.050Z,21.88
2023-05-08T16:23:24.928Z,22.15
2023-05-08T16:25:51.686Z,22.77
2023-05-08T16:28:18.421Z,22.17
2023-05-08T16:30:48.139Z,23.27
2023-05-08T16:33:14.940Z,25.45
2023-05-08T16:35:41.738Z,21.15
2023-05-08T16:38:08.546Z,26.88
2023-05-08T16:40:35.897Z,25.33
2023-05-08T16:43:02.754Z,24.85
2023-05-08T16:45:30.202Z,25.13
2023-05-08T16:47:56.996Z,25.40
2023-05-08T16:50:24.086Z,25.85
2023-05-08T16:52:51.023Z,25.23
2023-05-08T16:55:18.075Z,26.15
2023-05-08T16:57:44.918Z,25.48
2023-05-08T17:00:12.515Z,24.00
2023-05-08T17:02:39.385Z,22.42
2023-05-08T17:05:06.708Z,23.35
2023-05-08T17:07:33.495Z,21.42
2023-05-08T17:10:00.250Z,21.40
2023-05-08T17:12:27.221Z,21.00
2023-05-08T17:14:54.293Z,23.52
2023-05-08T17:17:21.076Z,22.77
2023-05-08T17:19:48.273Z,19.42
2023-05-08T17:22:15.619Z,21.63
2023-05-08T17:24:42.365Z,19.45
2023-05-08T17:27:09.457Z,21.10
2023-05-08T17:29:36.488Z,19.90
2023-05-08T17:32:03.717Z,20.83
2023-05-08T17:34:30.842Z,20.98
2023-05-08T17:36:57.629Z,21.52
2023-05-08T17:39:24.780Z,22.27
2023-05-08T17:41:51.883Z,21.17
2023-05-08T17:44:18.888Z,21.45
2023-05-08T17:46:46.214Z,21.95
2023-05-08T17:49:15.441Z,20.35
2023-05-08T17:51:45.120Z,21.88
2023-05-08T17:54:11.936Z,21.27
2023-05-08T17:56:38.691Z,19.55
2023-05-08T17:59:05.528Z,22.63
2023-05-08T18:01:32.427Z,22.73
2023-05-08T18:04:02.260Z,22.90
2023-05-08T18:06:29.062Z,21.58
2023-05-08T18:08:56.045Z,24.35
2023-05-08T18:11:25.470Z,23.00
2023-05-08T18:13:54.918Z,20.25
2023-05-08T18:16:22.297Z,22.70
2023-05-08T18:18:49.991Z,22.42
2023-05-08T18:21:16.951Z,22.63
2023-05-08T18:23:44.316Z,22.13
2023-05-08T18:26:15.299Z,22.63
2023-05-08T18:28:42.603Z,24.52
2023-05-08T18:31:09.691Z,23.38
2023-05-08T18:33:37.324Z,26.13
2023-05-08T18:36:06.939Z,24.25
2023-05-08T18:38:35.555Z,24.05
2023-05-08T18:41:06.171Z,25.50
2023-05-08T18:43:33.513Z,22.65
2023-05-08T18:46:00.718Z,20.65
2023-05-08T18:48:27.781Z,22.20
2023-05-08T18:50:58.381Z,23.27
2023-05-08T18:53:25.301Z,23.08
2023-05-08T18:55:52.926Z,22.73
2023-05-08T18:58:19.718Z,23.23
2023-05-08T19:00:46.558Z,22.95
2023-05-08T19:03:13.553Z,25.05
2023-05-08T19:05:43.807Z,20.90
2023-05-08T19:08:10.681Z,22.52
2023-05-08T19:10:37.449Z,23.45
2023-05-08T19:13:04.291Z,21.30
2023-05-08T19:15:31.176Z,25.20
2023-05-08T19:17:57.999Z,23.13
2023-05-08T19:20:24.990Z,25.10
2023-05-08T19:22:51.807Z,24.02
2023-05-08T19:25:18.756Z,26.30
2023-05-08T19:27:45.798Z,23.27
2023-05-08T19:30:13.207Z,24.02
2023-05-08T19:32:40.250Z,23.52
2023-05-08T19:35:08.312Z,22.63
2023-05-08T19:37:35.903Z,22.77
2023-05-08T19:40:02.905Z,22.27
2023-05-08T19:42:29.766Z,21.02
2023-05-08T19:44:56.659Z,19.40
2023-05-08T19:47:24.075Z,21.05
2023-05-08T19:49:51.247Z,22.02
2023-05-08T19:52:18.400Z,21.85
2023-05-08T19:54:46.842Z,23.77
2023-05-08T19:57:13.913Z,22.48
2023-05-08T19:59:40.720Z,21.63
2023-05-08T20:02:07.783Z,22.27
2023-05-08T20:04:48.756Z,19.25
2023-05-08T20:07:21.824Z,22.08
2023-05-08T20:09:48.759Z,21.25
2023-05-08T20:12:16.098Z,21.75
2023-05-08T20:14:43.194Z,22.60
2023-05-08T20:17:10.350Z,22.80
2023-05-08T20:19:37.616Z,24.00
2023-05-08T20:22:04.690Z,23.77
2023-05-08T20:24:31.701Z,23.90
2023-05-08T20:26:58.514Z,22.30
2023-05-08T20:29:26.763Z,24.73
2023-05-08T20:31:54.220Z,21.10
2023-05-08T20:34:22.109Z,25.52
2023-05-08T20:36:49.865Z,19.38
2023-05-08T20:39:16.819Z,20.77
2023-05-08T20:41:43.622Z,22.48
2023-05-08T20:44:12.413Z,20.92
2023-05-08T20:46:40.736Z,22.27
2023-05-08T20:49:07.700Z,24.65
2023-05-08T20:51:36.281Z,24.55
2023-05-08T20:54:03.410Z,22.70
2023-05-08T20:56:30.433Z,25.85
2023-05-08T20:58:57.281Z,24.42
2023-05-08T21:01:24.446Z,25.52
2023-05-08T21:03:51.299Z,23.85
2023-05-08T21:06:18.237Z,26.25
2023-05-08T21:08:45.155Z,25.58
2023-05-08T21:11:12.848Z,22.55
2023-05-08T21:13:39.702Z,23.30
2023-05-08T21:16:07.545Z,24.58
2023-05-08T21:18:34.515Z,26.30
2023-05-08T21:21:01.636Z,26.05
2023-05-08T21:23:29.934Z,25.88
2023-05-08T21:25:56.939Z,27.67
2023-05-08T21:28:23.719Z,26.42
2023-05-08T21:30:50.610Z,24.92
2023-05-08T21:33:18.090Z,24.30
2023-05-08T21:35:44.859Z,25.55
2023-05-08T21:38:12.217Z,24.85
2023-05-08T21:40:39.319Z,24.60
2023-05-08T21:43:06.210Z,24.98
2023-05-08T21:45:33.346Z,25.42
2023-05-08T21:48:00.509Z,26.77
2023-05-08T21:50:30.747Z,25.42
2023-05-08T21:52:57.651Z,27.88
2023-05-08T21:55:24.876Z,26.30
2023-05-08T21:57:52.039Z,27.63
2023-05-08T22:00:20.055Z,27.73
2023-05-08T22:02:47.168Z,29.83
2023-05-08T22:05:15.145Z,26.48
2023-05-08T22:07:42.022Z,24.65
2023-05-08T22:10:10.482Z,28.08
2023-05-08T22:12:37.589Z,28.77
2023-05-08T22:15:09.469Z,27.85
2023-05-08T22:17:41.860Z,27.00
2023-05-08T22:20:14.605Z,26.88
2023-05-08T22:22:41.640Z,26.60
2023-05-08T22:25:09.068Z,25.77
2023-05-08T22:27:36.022Z,27.23
2023-05-08T22:30:03.166Z,28.75
2023-05-08T22:32:29.961Z,26.67
2023-05-08T22:34:56.752Z,27.80
2023-05-08T22:37:23.527Z,24.77
2023-05-08T22:39:50.286Z,25.67
2023-05-08T22:42:17.814Z,25.77
2023-05-08T22:44:44.914Z,28.10
2023-05-08T22:47:12.542Z,27.60
2023-05-08T22:49:41.028Z,27.02
2023-05-08T22:52:09.516Z,26.63
2023-05-08T22:54:36.343Z,27.65
2023-05-08T22:57:03.268Z,27.05
2023-05-08T22:59:29.988Z,27.60
2023-05-08T23:01:59.745Z,25.70
2023-05-08T23:04:26.501Z,28.40
2023-05-08T23:06:53.234Z,28.52
2023-05-08T23:09:19.968Z,30.80
2023-05-08T23:11:47.365Z,30.45
2023-05-08T23:14:14.232Z,27.25
2023-05-08T23:16:40.984Z,28.30
2023-05-08T23:19:09.908Z,28.45
2023-05-08T23:21:36.750Z,28.80
2023-05-08T23:24:05.204Z,26.83
2023-05-08T23:26:32.035Z,29.70
2023-05-08T23:28:58.775Z,29.65
2023-05-08T23:31:25.539Z,29.65
2023-05-08T23:33:52.737Z,27.90
2023-05-08T23:36:19.555Z,25.90
2023-05-08T23:38:46.690Z,27.95
2023-05-08T23:41:13.816Z,26.50
2023-05-08T23:43:40.942Z,27.90
2023-05-08T23:46:07.908Z,27.02
2023-05-08T23:48:34.785Z,26.83
2023-05-08T23:51:01.645Z,28.65
2023-05-08T23:53:28.349Z,28.42
2023-05-08T23:55:55.224Z,28.48
2023-05-08T23:58:21.987Z,28.45
